createdAt,value
2019-04-07T00:04:17.183Z,8.33
2019-04-07T00:10:01.854Z,8.27
2019-04-07T00:12:50.897Z,8.22
2019-04-07T00:15:39.934Z,8.22
2019-04-07T00:18:30.786Z,8.21
2019-04-07T00:21:20.860Z,8.20
2019-04-07T00:24:10.233Z,8.21
2019-04-07T00:27:00.262Z,8.20
2019-04-07T00:29:42.347Z,8.18
2019-04-07T00:32:31.156Z,8.17
2019-04-07T00:35:39.050Z,8.16
2019-04-07T00:41:35.635Z,8.09
2019-04-07T00:44:24.697Z,8.12
2019-04-07T00:47:15.294Z,8.16
2019-04-07T00:53:22.268Z,8.22
2019-04-07T00:56:11.626Z,8.20
2019-04-07T00:59:02.670Z,8.16
2019-04-07T01:01:52.615Z,8.18
2019-04-07T01:04:43.020Z,8.13
2019-04-07T01:10:39.620Z,8.11
2019-04-07T01:13:28.516Z,8.08
2019-04-07T01:16:17.394Z,8.06
2019-04-07T01:19:07.147Z,8.07
2019-04-07T01:21:56.896Z,8.06
2019-04-07T01:24:45.748Z,8.07
2019-04-07T01:27:27.205Z,8.04
2019-04-07T01:33:31.395Z,7.93
2019-04-07T01:36:21.688Z,7.94
2019-04-07T01:42:25.568Z,7.98
2019-04-07T01:45:33.450Z,8.11
2019-04-07T01:48:41.354Z,8.23
2019-04-07T01:51:49.664Z,8.32
2019-04-07T01:54:59.028Z,8.31
2019-04-07T01:58:07.328Z,8.16
2019-04-07T02:01:15.814Z,8.04
2019-04-07T02:07:39.118Z,7.91
2019-04-07T02:10:47.019Z,7.85
2019-04-07T02:16:51.188Z,7.84
2019-04-07T02:22:58.748Z,7.70
2019-04-07T02:26:07.035Z,7.71
2019-04-07T02:29:08.048Z,7.69
2019-04-07T02:32:15.955Z,7.67
2019-04-07T02:35:45.015Z,7.66
2019-04-07T02:38:53.706Z,7.60
2019-04-07T02:42:02.496Z,7.50
2019-04-07T02:45:10.988Z,7.47
2019-04-07T02:51:15.329Z,7.45
2019-04-07T02:57:24.206Z,7.39
2019-04-07T03:00:32.710Z,7.39
2019-04-07T03:03:40.759Z,7.43
2019-04-07T03:09:39.887Z,7.58
2019-04-07T03:12:48.691Z,7.65
2019-04-07T03:22:24.405Z,7.94
2019-04-07T03:25:32.529Z,8.01
2019-04-07T03:28:16.907Z,8.09
2019-04-07T03:31:24.836Z,8.15
2019-04-07T03:37:45.541Z,8.21
2019-04-07T03:40:51.802Z,8.32
2019-04-07T03:43:59.671Z,8.40
2019-04-07T03:47:07.598Z,8.37
2019-04-07T03:53:12.441Z,8.34
2019-04-07T03:56:21.878Z,8.31
2019-04-07T03:59:30.613Z,8.30
2019-04-07T04:02:39.090Z,8.24
2019-04-07T04:08:42.783Z,8.27
2019-04-07T04:11:51.555Z,8.22
2019-04-07T04:17:51.283Z,8.15
2019-04-07T04:20:41.290Z,8.13
2019-04-07T04:23:30.308Z,8.07
2019-04-07T04:26:19.195Z,8.03
2019-04-07T04:29:02.575Z,8.01
2019-04-07T04:31:52.599Z,8.01
2019-04-07T04:34:43.153Z,7.99
2019-04-07T04:37:40.225Z,7.92
2019-04-07T04:40:23.148Z,7.81
2019-04-07T04:43:12.104Z,7.72
2019-04-07T04:46:03.184Z,7.63
2019-04-07T04:48:53.230Z,7.59
2019-04-07T04:51:42.530Z,7.53
2019-04-07T04:54:33.405Z,7.46
2019-04-07T04:57:23.239Z,7.49
2019-04-07T05:03:27.309Z,7.47
2019-04-07T05:06:16.085Z,7.49
2019-04-07T05:09:39.556Z,7.50
2019-04-07T05:12:16.358Z,7.43
2019-04-07T05:15:26.091Z,7.42
2019-04-07T05:18:14.923Z,7.41
2019-04-07T05:21:04.275Z,7.45
2019-04-07T05:23:54.835Z,7.48
2019-04-07T05:26:45.549Z,7.53
2019-04-07T05:29:28.122Z,7.53
2019-04-07T05:32:17.285Z,7.59
2019-04-07T05:35:27.552Z,7.64
2019-04-07T05:38:17.632Z,7.79
2019-04-07T05:41:06.554Z,7.96
2019-04-07T05:43:55.767Z,8.03
2019-04-07T05:46:28.160Z,8.14
2019-04-07T05:49:18.567Z,8.33
2019-04-07T05:52:08.460Z,8.48
2019-04-07T05:54:58.781Z,8.65
2019-04-07T05:57:49.648Z,8.88
2019-04-07T06:03:38.030Z,9.74
2019-04-07T06:06:25.931Z,9.90
2019-04-07T06:09:17.730Z,10.22
2019-04-07T06:12:08.491Z,10.57
2019-04-07T06:18:04.077Z,10.99
2019-04-07T06:26:47.622Z,11.83
2019-04-07T06:29:27.969Z,12.15
2019-04-07T06:32:17.627Z,12.33
2019-04-07T06:35:08.499Z,12.46
2019-04-07T06:38:04.139Z,12.97
2019-04-07T06:40:50.817Z,13.33
2019-04-07T06:43:40.219Z,13.73
2019-04-07T06:49:49.312Z,14.36
2019-04-07T06:52:57.695Z,14.39
2019-04-07T06:56:05.997Z,15.22
2019-04-07T06:59:15.570Z,16.11
2019-04-07T07:02:23.986Z,16.04
2019-04-07T07:14:42.629Z,18.08
2019-04-07T07:17:27.949Z,17.25
2019-04-07T07:20:37.292Z,18.21
2019-04-07T07:26:36.569Z,19.59
2019-04-07T07:29:26.818Z,18.77
2019-04-07T07:32:10.026Z,18.93
2019-04-07T07:34:58.846Z,20.36
2019-04-07T07:37:48.347Z,21.17
2019-04-07T07:40:38.581Z,21.25
2019-04-07T07:43:29.553Z,22.26
2019-04-07T07:46:21.822Z,22.42
2019-04-07T07:49:10.372Z,21.62
2019-04-07T07:52:01.399Z,22.13
2019-04-07T07:54:51.870Z,21.98
2019-04-07T07:57:41.734Z,22.36
2019-04-07T08:00:30.950Z,23.11
2019-04-07T08:03:22.837Z,24.18
2019-04-07T08:06:11.849Z,23.46
2019-04-07T08:09:09.824Z,24.62
2019-04-07T08:11:52.639Z,23.45
2019-04-07T08:14:42.580Z,22.95
2019-04-07T08:17:33.902Z,21.93
2019-04-07T08:20:23.173Z,24.06
2019-04-07T08:23:31.156Z,24.62
2019-04-07T08:26:23.897Z,25.66
2019-04-07T08:28:51.395Z,24.60
2019-04-07T08:31:39.361Z,25.28
2019-04-07T08:34:30.524Z,25.89
2019-04-07T08:37:19.065Z,25.81
2019-04-07T08:40:09.688Z,25.86
2019-04-07T08:42:59.353Z,25.17
2019-04-07T08:45:49.065Z,25.60
2019-04-07T08:48:37.941Z,26.22
2019-04-07T08:51:27.437Z,26.19
2019-04-07T08:54:18.441Z,26.30
2019-04-07T08:57:08.325Z,26.09
2019-04-07T08:59:57.555Z,25.78
2019-04-07T09:03:00.190Z,25.97
2019-04-07T09:05:38.355Z,26.28
2019-04-07T09:08:27.196Z,26.98
2019-04-07T09:11:35.148Z,26.79
2019-04-07T09:14:06.444Z,24.95
2019-04-07T09:17:23.258Z,25.09
2019-04-07T09:19:46.926Z,25.62
2019-04-07T09:22:57.247Z,26.49
2019-04-07T09:26:10.103Z,25.63
2019-04-07T09:29:16.275Z,27.17
2019-04-07T09:32:02.210Z,26.91
2019-04-07T09:38:08.010Z,27.81
2019-04-07T09:41:17.228Z,27.38
2019-04-07T09:44:25.400Z,28.67
2019-04-07T09:47:33.336Z,27.50
2019-04-07T09:50:41.906Z,27.24
2019-04-07T09:53:50.708Z,27.98
2019-04-07T09:57:03.418Z,26.92
2019-04-07T10:00:09.694Z,26.02
2019-04-07T10:06:27.009Z,27.52
2019-04-07T10:09:35.680Z,26.81
2019-04-07T10:12:25.192Z,26.11
2019-04-07T10:15:34.006Z,24.96
2019-04-07T10:18:42.808Z,25.29
2019-04-07T10:21:51.473Z,25.86
2019-04-07T10:24:59.341Z,26.04
2019-04-07T10:28:10.567Z,25.74
2019-04-07T10:31:19.510Z,25.23
2019-04-07T10:34:27.376Z,25.56
2019-04-07T10:37:36.133Z,24.46
2019-04-07T10:40:44.074Z,24.53
2019-04-07T10:43:52.595Z,23.18
2019-04-07T10:47:00.497Z,22.86
2019-04-07T10:49:58.613Z,22.10
2019-04-07T10:52:58.729Z,22.95
2019-04-07T10:56:06.900Z,23.96
2019-04-07T10:59:14.814Z,24.76
2019-04-07T11:02:22.805Z,25.43
2019-04-07T11:08:26.555Z,25.01
2019-04-07T11:11:34.447Z,26.04
2019-04-07T11:14:43.005Z,26.69
2019-04-07T11:17:51.563Z,25.69
2019-04-07T11:21:20.335Z,26.16
2019-04-07T11:24:31.082Z,25.44
2019-04-07T11:27:37.950Z,25.67
2019-04-07T11:30:45.852Z,25.18
2019-04-07T11:33:47.036Z,25.95
2019-04-07T11:42:59.793Z,26.58
2019-04-07T11:46:07.761Z,26.22
2019-04-07T11:52:06.024Z,26.60
2019-04-07T11:55:16.182Z,26.99
2019-04-07T11:58:31.414Z,26.44
2019-04-07T12:01:33.912Z,26.89
2019-04-07T12:04:22.578Z,27.25
2019-04-07T12:07:30.512Z,27.03
2019-04-07T12:10:38.742Z,25.13
2019-04-07T12:13:46.787Z,26.52
2019-04-07T12:20:04.264Z,24.88
2019-04-07T12:26:08.630Z,23.97
2019-04-07T12:29:16.767Z,23.88
2019-04-07T12:32:24.950Z,25.35
2019-04-07T12:39:01.792Z,24.32
2019-04-07T12:42:09.680Z,23.32
2019-04-07T12:45:18.027Z,22.64
2019-04-07T12:48:28.961Z,23.11
2019-04-07T12:51:35.556Z,24.08
2019-04-07T12:54:43.728Z,23.75
2019-04-07T12:57:35.466Z,23.49
2019-04-07T13:00:54.397Z,24.36
2019-04-07T13:07:01.297Z,24.49
2019-04-07T13:16:05.546Z,25.85
2019-04-07T13:21:50.065Z,26.26
2019-04-07T13:27:54.207Z,25.56
2019-04-07T13:30:43.340Z,26.55
2019-04-07T13:33:29.122Z,26.01
2019-04-07T13:36:17.156Z,25.18
2019-04-07T13:39:47.196Z,25.73
2019-04-07T13:42:58.058Z,25.03
2019-04-07T13:52:30.036Z,22.83
2019-04-07T13:58:15.046Z,22.28
2019-04-07T14:01:21.071Z,21.88
2019-04-07T14:04:15.664Z,21.57
2019-04-07T14:10:20.231Z,24.30
2019-04-07T14:13:29.962Z,22.67
2019-04-07T14:19:47.642Z,23.94
2019-04-07T14:22:55.649Z,24.34
2019-04-07T14:26:03.622Z,25.24
2019-04-07T14:29:11.992Z,25.58
2019-04-07T14:32:19.905Z,25.53
2019-04-07T14:47:38.799Z,24.27
2019-04-07T14:50:47.342Z,23.57
2019-04-07T14:53:55.446Z,24.46
2019-04-07T14:56:44.037Z,23.45
2019-04-07T14:59:54.212Z,24.31
2019-04-07T15:02:23.269Z,25.26
2019-04-07T15:05:32.697Z,24.34
2019-04-07T15:08:40.952Z,24.31
2019-04-07T15:11:48.829Z,25.32
2019-04-07T15:14:37.665Z,25.93
2019-04-07T15:17:27.162Z,26.94
2019-04-07T15:20:17.541Z,27.06
2019-04-07T15:23:08.606Z,27.38
2019-04-07T15:25:59.036Z,27.15
2019-04-07T15:28:49.317Z,24.62
2019-04-07T15:31:38.603Z,24.05
2019-04-07T15:34:29.646Z,23.63
2019-04-07T15:37:22.615Z,24.15
2019-04-07T15:40:10.909Z,24.67
2019-04-07T15:43:04.307Z,24.25
2019-04-07T15:45:52.177Z,23.72
2019-04-07T15:48:41.997Z,24.25
2019-04-07T15:51:34.148Z,24.54
2019-04-07T15:54:23.968Z,25.16
2019-04-07T15:57:12.070Z,24.96
2019-04-07T16:00:03.695Z,24.96
2019-04-07T16:02:53.313Z,26.05
2019-04-07T16:05:44.586Z,25.71
2019-04-07T16:08:32.671Z,24.03
2019-04-07T16:11:24.428Z,23.15
2019-04-07T16:14:13.608Z,22.52
2019-04-07T16:17:05.405Z,22.33
2019-04-07T16:19:54.425Z,22.17
2019-04-07T16:22:47.043Z,21.86
2019-04-07T16:25:34.910Z,21.66
2019-04-07T16:28:23.763Z,21.69
2019-04-07T16:31:13.268Z,21.77
2019-04-07T16:33:56.169Z,21.94
2019-04-07T16:36:44.993Z,21.74
2019-04-07T16:39:34.948Z,22.12
2019-04-07T16:42:25.268Z,22.26
2019-04-07T16:45:17.783Z,22.28
2019-04-07T16:48:06.696Z,22.18
2019-04-07T16:50:57.278Z,21.95
2019-04-07T16:53:47.808Z,21.74
2019-04-07T16:56:58.352Z,21.42
2019-04-07T16:59:28.360Z,21.32
2019-04-07T17:02:18.262Z,21.53
2019-04-07T17:05:07.970Z,21.14
2019-04-07T17:07:57.290Z,21.28
2019-04-07T17:10:47.383Z,21.37
2019-04-07T17:13:41.212Z,21.08
2019-04-07T17:16:26.902Z,20.95
2019-04-07T17:19:16.281Z,21.01
2019-04-07T17:22:07.198Z,20.99
2019-04-07T17:25:00.341Z,20.92
2019-04-07T17:28:03.406Z,20.66
2019-04-07T17:30:49.639Z,20.58
2019-04-07T17:33:36.058Z,20.38
2019-04-07T17:36:24.005Z,20.34
2019-04-07T17:39:36.927Z,20.19
2019-04-07T17:42:26.236Z,20.14
2019-04-07T17:48:50.377Z,19.95
2019-04-07T17:51:36.339Z,19.79
2019-04-07T17:54:42.917Z,19.83
2019-04-07T17:57:50.766Z,19.69
2019-04-07T18:00:59.676Z,19.63
2019-04-07T18:04:09.320Z,19.32
2019-04-07T18:07:17.961Z,19.25
2019-04-07T18:10:26.709Z,18.98
2019-04-07T18:13:44.968Z,18.88
2019-04-07T18:19:41.201Z,18.31
2019-04-07T18:25:45.787Z,17.90
2019-04-07T18:28:30.517Z,17.64
2019-04-07T18:31:04.973Z,17.34
2019-04-07T18:33:50.753Z,17.12
2019-04-07T18:36:21.400Z,16.96
2019-04-07T18:38:51.536Z,16.71
2019-04-07T18:41:38.656Z,16.53
2019-04-07T18:44:28.344Z,16.33
2019-04-07T18:47:12.198Z,16.09
2019-04-07T18:50:03.661Z,15.88
2019-04-07T18:52:33.596Z,15.76
2019-04-07T18:55:09.878Z,15.56
2019-04-07T18:57:52.118Z,15.45
2019-04-07T19:00:23.323Z,15.35
2019-04-07T19:02:53.467Z,15.26
2019-04-07T19:05:33.400Z,15.18
2019-04-07T19:08:20.265Z,15.14
2019-04-07T19:11:06.943Z,15.09
2019-04-07T19:13:43.153Z,15.00
2019-04-07T19:16:19.087Z,14.84
2019-04-07T19:18:47.369Z,14.72
2019-04-07T19:21:31.506Z,14.58
2019-04-07T19:24:10.665Z,14.49
2019-04-07T19:27:11.992Z,14.36
2019-04-07T19:29:39.022Z,14.22
2019-04-07T19:32:17.955Z,14.13
2019-04-07T19:34:49.327Z,14.10
2019-04-07T19:37:22.895Z,14.02
2019-04-07T19:39:56.475Z,13.91
2019-04-07T19:42:27.384Z,13.82
2019-04-07T19:45:13.441Z,13.75
2019-04-07T19:48:04.006Z,13.66
2019-04-07T19:50:39.145Z,13.52
2019-04-07T19:53:16.095Z,13.46
2019-04-07T19:56:03.089Z,13.36
2019-04-07T19:58:47.027Z,13.22
2019-04-07T20:01:34.226Z,13.13
2019-04-07T20:04:11.051Z,13.02
2019-04-07T20:06:46.868Z,12.94
2019-04-07T20:09:19.358Z,12.87
2019-04-07T20:11:51.560Z,12.77
2019-04-07T20:14:46.595Z,12.69
2019-04-07T20:17:19.730Z,12.63
2019-04-07T20:19:47.880Z,12.53
2019-04-07T20:22:33.898Z,12.46
2019-04-07T20:25:20.004Z,12.42
2019-04-07T20:27:59.466Z,12.34
2019-04-07T20:30:36.397Z,12.34
2019-04-07T20:33:16.827Z,12.39
2019-04-07T20:36:03.742Z,12.42
2019-04-07T20:38:51.173Z,12.47
2019-04-07T20:41:31.546Z,12.49
2019-04-07T20:44:03.893Z,12.46
2019-04-07T20:46:36.094Z,12.39
2019-04-07T20:49:08.815Z,12.31
2019-04-07T20:51:41.041Z,12.25
2019-04-07T20:54:12.279Z,12.19
2019-04-07T20:56:56.181Z,12.13
2019-04-07T20:59:29.007Z,12.11
2019-04-07T21:02:09.445Z,11.99
2019-04-07T21:04:53.766Z,11.88
2019-04-07T21:07:36.722Z,11.87
2019-04-07T21:10:10.926Z,11.73
2019-04-07T21:12:54.808Z,11.64
2019-04-07T21:15:28.229Z,11.62
2019-04-07T21:17:58.286Z,11.64
2019-04-07T21:20:41.992Z,11.61
2019-04-07T21:23:28.055Z,11.61
2019-04-07T21:26:05.760Z,11.66
2019-04-07T21:28:42.819Z,11.73
2019-04-07T21:31:18.643Z,11.78
2019-04-07T21:34:02.412Z,11.78
2019-04-07T21:36:32.214Z,11.71
2019-04-07T21:39:15.093Z,11.75
2019-04-07T21:41:58.378Z,11.69
2019-04-07T21:44:35.884Z,11.57
2019-04-07T21:47:16.152Z,11.50
2019-04-07T21:49:55.891Z,11.45
2019-04-07T21:52:27.074Z,11.39
2019-04-07T21:55:14.885Z,11.31
2019-04-07T21:58:03.961Z,11.25
2019-04-07T22:00:51.084Z,11.17
2019-04-07T22:03:38.276Z,11.16
2019-04-07T22:06:16.575Z,11.09
2019-04-07T22:09:02.491Z,10.99
2019-04-07T22:11:32.601Z,10.91
2019-04-07T22:14:04.113Z,10.82
2019-04-07T22:16:34.238Z,10.76
2019-04-07T22:19:04.224Z,10.71
2019-04-07T22:21:34.153Z,10.67
2019-04-07T22:24:04.817Z,10.60
2019-04-07T22:26:34.968Z,10.54
2019-04-07T22:29:05.569Z,10.51
2019-04-07T22:31:36.791Z,10.46
2019-04-07T22:34:06.910Z,10.42
2019-04-07T22:36:36.451Z,10.43
2019-04-07T22:39:07.785Z,10.37
2019-04-07T22:41:41.231Z,10.31
2019-04-07T22:44:09.217Z,10.27
2019-04-07T22:46:39.599Z,10.22
2019-04-07T22:49:09.316Z,10.19
2019-04-07T22:51:43.007Z,10.13
2019-04-07T22:54:10.072Z,10.06
2019-04-07T22:56:39.936Z,10.01
2019-04-07T22:59:11.601Z,9.98
2019-04-07T23:01:41.641Z,9.89
2019-04-07T23:04:11.949Z,9.87
2019-04-07T23:06:42.479Z,9.85
2019-04-07T23:09:12.068Z,9.81
2019-04-07T23:11:41.571Z,9.76
2019-04-07T23:14:11.537Z,9.71
2019-04-07T23:16:41.085Z,9.70
2019-04-07T23:19:10.951Z,9.70
2019-04-07T23:21:40.559Z,9.71
2019-04-07T23:24:10.860Z,9.66
2019-04-07T23:26:40.519Z,9.64
2019-04-07T23:29:10.105Z,9.55
2019-04-07T23:31:40.472Z,9.54
2019-04-07T23:34:10.559Z,9.53
2019-04-07T23:36:40.161Z,9.46
2019-04-07T23:39:10.012Z,9.48
2019-04-07T23:41:39.754Z,9.43
2019-04-07T23:44:09.471Z,9.41
2019-04-07T23:46:39.348Z,9.32
2019-04-07T23:49:09.900Z,9.35
2019-04-07T23:51:39.492Z,9.31
2019-04-07T23:54:14.263Z,9.34
2019-04-07T23:56:45.810Z,9.42
2019-04-07T23:59:15.379Z,9.40
